Barrington Hills, Illinois
Current Conditions -  °F | °C
As of 5:52 PM on Saturday 25 Oct 2014 (Local Time) from KPWK Reporting Station
Clear Clear  
Wind Chill: 67°   Ceiling: Unl
Heat Index: 67°   Visibility: 10mi
Dew Point: 27°   Wind: 7mph
Humidity: 22%   Direction: 280°W
Pressure: 29.92"   Gusts: NA
Location:  42.1928°N, 88.2237°W
Report Text: KPWK 252252Z 28006KT 10SM CLR 19/M03 A2992 RMK AO2 SLP131 T01941028
Loading
Personal Weather Stations






























Interactive Weather Map
Tropical Storm Tracking
New forecast layout! Learn more

10-Day Weather Forecast

Advertisements
Track Severe Weather on mobile